createdAt,value
2022-11-22T00:01:19.369Z,97666.42
2022-11-22T00:03:51.185Z,97663.23
2022-11-22T00:06:22.662Z,97665.32
2022-11-22T00:08:54.204Z,97656.98
2022-11-22T00:11:25.689Z,97660.43
2022-11-22T00:13:57.229Z,97661.67
2022-11-22T00:16:28.769Z,97659.27
2022-11-22T00:19:00.289Z,97657.91
2022-11-22T00:21:31.806Z,97656.59
2022-11-22T00:24:03.603Z,97656.54
2022-11-22T00:26:35.345Z,97658.74
2022-11-22T00:29:06.867Z,97654.89
2022-11-22T00:31:38.368Z,97661.41
2022-11-22T00:34:10.284Z,97653.26
2022-11-22T00:36:41.875Z,97663.96
2022-11-22T00:39:13.373Z,97669.80
2022-11-22T00:41:44.856Z,97672.41
2022-11-22T00:44:16.328Z,97676.38
2022-11-22T00:46:47.958Z,97680.96
2022-11-22T00:49:19.618Z,97688.16
2022-11-22T00:51:51.158Z,97692.87
2022-11-22T00:54:22.771Z,97700.13
2022-11-22T00:56:54.279Z,97706.02
2022-11-22T00:59:25.816Z,97711.67
2022-11-22T01:01:57.347Z,97704.40
2022-11-22T01:04:29.074Z,97700.31
2022-11-22T01:07:00.660Z,97690.19
2022-11-22T01:09:32.582Z,97692.17
2022-11-22T01:12:04.380Z,97690.79
2022-11-22T01:14:35.936Z,97685.84
2022-11-22T01:17:07.517Z,97684.56
2022-11-22T01:19:39.233Z,97679.95
2022-11-22T01:22:10.744Z,97678.90
2022-11-22T01:24:42.265Z,97675.23
2022-11-22T01:27:13.972Z,97672.42
2022-11-22T01:29:45.611Z,97670.66
2022-11-22T01:32:17.187Z,97667.25
2022-11-22T01:34:48.677Z,97660.05
2022-11-22T01:37:20.221Z,97659.98
2022-11-22T01:39:51.841Z,97655.09
2022-11-22T01:42:23.352Z,97657.14
2022-11-22T01:44:56.266Z,97655.65
2022-11-22T01:47:28.516Z,97651.31
2022-11-22T01:50:05.892Z,97650.02
2022-11-22T01:52:38.416Z,97649.96
2022-11-22T01:55:14.196Z,97645.89
2022-11-22T01:57:47.977Z,97644.34
2022-11-22T02:00:20.820Z,97648.55
2022-11-22T02:02:56.460Z,97650.20
2022-11-22T02:05:31.358Z,97647.82
2022-11-22T02:08:07.223Z,97650.39
2022-11-22T02:10:43.112Z,97649.86
2022-11-22T02:13:17.053Z,97645.15
2022-11-22T02:15:48.598Z,97643.65
2022-11-22T02:18:20.424Z,97641.27
2022-11-22T02:20:52.208Z,97639.91
2022-11-22T02:23:32.669Z,97627.52
2022-11-22T02:26:05.015Z,97631.27
2022-11-22T02:28:41.322Z,97634.84
2022-11-22T02:31:37.448Z,97636.45
2022-11-22T02:34:09.321Z,97638.77
2022-11-22T02:36:46.714Z,97638.09
2022-11-22T02:39:22.381Z,97631.40
2022-11-22T02:41:54.607Z,97624.92
2022-11-22T02:44:27.133Z,97618.40
2022-11-22T02:46:59.091Z,97618.34
2022-11-22T02:49:30.831Z,97613.03
2022-11-22T02:52:02.594Z,97615.99
2022-11-22T02:54:34.146Z,97613.95
2022-11-22T02:57:06.274Z,97614.36
2022-11-22T02:59:37.830Z,97618.04
2022-11-22T03:02:09.412Z,97618.20
2022-11-22T03:04:40.961Z,97613.79
2022-11-22T03:07:12.475Z,97611.33
2022-11-22T03:09:44.060Z,97613.06
2022-11-22T03:12:15.741Z,97610.66
2022-11-22T03:14:47.327Z,97611.90
2022-11-22T03:17:19.140Z,97609.38
2022-11-22T03:19:50.727Z,97606.79
2022-11-22T03:22:23.331Z,97615.14
2022-11-22T03:24:54.800Z,97613.15
2022-11-22T03:27:26.325Z,97614.34
2022-11-22T03:29:57.851Z,97617.90
2022-11-22T03:32:29.413Z,97618.34
2022-11-22T03:35:00.920Z,97608.48
2022-11-22T03:37:32.457Z,97608.55
2022-11-22T03:40:04.308Z,97605.86
2022-11-22T03:42:35.885Z,97603.57
2022-11-22T03:45:10.389Z,97599.88
2022-11-22T03:47:41.900Z,97600.17
2022-11-22T03:50:13.821Z,97606.72
2022-11-22T03:52:45.280Z,97612.95
2022-11-22T03:55:17.602Z,97613.20
2022-11-22T03:57:49.258Z,97616.25
2022-11-22T04:00:21.605Z,97612.33
2022-11-22T04:02:53.547Z,97613.26
2022-11-22T04:05:25.782Z,97612.09
2022-11-22T04:07:58.148Z,97615.71
2022-11-22T04:10:29.728Z,97614.83
2022-11-22T04:13:01.721Z,97618.20
2022-11-22T04:15:33.306Z,97615.60
2022-11-22T04:18:05.106Z,97608.23
2022-11-22T04:20:55.057Z,97607.24
2022-11-22T04:23:33.472Z,97607.27
2022-11-22T04:26:05.545Z,97603.15
2022-11-22T04:31:46.444Z,97597.52
2022-11-22T04:34:18.196Z,97595.45
2022-11-22T04:36:49.756Z,97595.77
2022-11-22T04:39:21.666Z,97591.15
2022-11-22T04:42:15.253Z,97589.59
2022-11-22T04:44:47.802Z,97591.86
2022-11-22T04:47:34.456Z,97593.88
2022-11-22T04:50:28.926Z,97591.86
2022-11-22T04:53:00.565Z,97592.39
2022-11-22T04:55:32.225Z,97589.83
2022-11-22T04:58:04.108Z,97590.98
2022-11-22T05:00:36.182Z,97587.83
2022-11-22T05:03:08.613Z,97590.87
2022-11-22T05:05:41.846Z,97590.63
2022-11-22T05:08:14.044Z,97585.98
2022-11-22T05:10:57.791Z,97578.92
2022-11-22T05:13:33.745Z,97581.16
2022-11-22T05:16:07.581Z,97587.27
2022-11-22T05:18:39.551Z,97587.34
2022-11-22T05:21:13.391Z,97578.92
2022-11-22T05:23:57.230Z,97581.56
2022-11-22T05:26:28.631Z,97585.40
2022-11-22T05:29:00.779Z,97582.95
2022-11-22T05:31:33.708Z,97582.73
2022-11-22T05:34:06.182Z,97585.69
2022-11-22T05:36:37.857Z,97586.42
2022-11-22T05:39:09.398Z,97588.05
2022-11-22T05:41:55.877Z,97588.06
2022-11-22T05:44:27.677Z,97589.48
2022-11-22T05:46:59.268Z,97590.60
2022-11-22T05:49:31.172Z,97593.14
2022-11-22T05:52:03.068Z,97589.95
2022-11-22T05:54:34.601Z,97588.25
2022-11-22T05:57:06.170Z,97590.69
2022-11-22T05:59:42.675Z,97592.92
2022-11-22T06:02:15.892Z,97585.15
2022-11-22T06:04:47.686Z,97593.63
2022-11-22T06:07:19.298Z,97598.48
2022-11-22T06:09:51.012Z,97604.59
2022-11-22T06:12:22.591Z,97612.39
2022-11-22T06:14:54.112Z,97612.22
2022-11-22T06:17:25.790Z,97609.10
2022-11-22T06:20:02.679Z,97616.52
2022-11-22T06:22:37.370Z,97615.77
2022-11-22T06:25:10.792Z,97610.84
2022-11-22T06:27:42.319Z,97611.98
2022-11-22T06:30:15.575Z,97608.02
2022-11-22T06:32:47.071Z,97612.23
2022-11-22T06:35:18.650Z,97608.98
2022-11-22T06:37:52.970Z,97610.95
2022-11-22T06:40:27.780Z,97615.25
2022-11-22T06:43:00.380Z,97624.08
2022-11-22T06:45:31.832Z,97627.48
2022-11-22T06:48:03.466Z,97626.84
2022-11-22T06:50:35.014Z,97627.62
2022-11-22T06:53:06.526Z,97633.06
2022-11-22T06:55:50.203Z,97640.52
2022-11-22T06:58:22.664Z,97642.98
2022-11-22T07:00:54.289Z,97641.31
2022-11-22T07:03:25.975Z,97646.37
2022-11-22T07:05:57.998Z,97649.55
2022-11-22T07:08:29.918Z,97644.91
2022-11-22T07:11:06.638Z,97645.90
2022-11-22T07:13:38.596Z,97640.04
2022-11-22T07:16:12.975Z,97638.44
2022-11-22T07:18:45.248Z,97631.45
2022-11-22T07:21:19.293Z,97635.81
2022-11-22T07:23:52.787Z,97638.23
2022-11-22T07:26:26.019Z,97640.50
2022-11-22T07:28:57.785Z,97636.83
2022-11-22T07:31:29.527Z,97633.26
2022-11-22T07:34:01.135Z,97636.31
2022-11-22T07:36:32.675Z,97641.55
2022-11-22T07:39:05.575Z,97645.75
2022-11-22T07:41:37.248Z,97646.35
2022-11-22T07:44:08.868Z,97641.52
2022-11-22T07:46:40.418Z,97641.21
2022-11-22T07:49:12.947Z,97645.14
2022-11-22T07:51:44.552Z,97643.63
2022-11-22T07:54:16.488Z,97645.37
2022-11-22T07:56:48.332Z,97640.37
2022-11-22T07:59:20.253Z,97631.77
2022-11-22T08:01:52.027Z,97629.75
2022-11-22T08:04:23.730Z,97631.16
2022-11-22T08:06:55.285Z,97633.96
2022-11-22T08:09:26.792Z,97633.13
2022-11-22T08:11:58.333Z,97633.90
2022-11-22T08:14:29.921Z,97633.98
2022-11-22T08:17:01.678Z,97627.13
2022-11-22T08:19:35.804Z,97627.73
2022-11-22T08:22:07.457Z,97623.88
2022-11-22T08:24:39.348Z,97619.61
2022-11-22T08:27:11.017Z,97620.75
2022-11-22T08:29:42.555Z,97617.81
2022-11-22T08:32:14.194Z,97625.97
2022-11-22T08:34:47.459Z,97626.90
2022-11-22T08:37:19.474Z,97622.31
2022-11-22T08:39:51.025Z,97620.70
2022-11-22T08:42:22.759Z,97618.99
2022-11-22T08:44:54.339Z,97623.48
2022-11-22T08:47:27.097Z,97615.06
2022-11-22T08:49:58.879Z,97609.17
2022-11-22T08:52:30.387Z,97607.44
2022-11-22T08:55:02.175Z,97611.02
2022-11-22T08:57:33.731Z,97608.60
2022-11-22T09:00:07.648Z,97605.17
2022-11-22T09:02:39.334Z,97610.73
2022-11-22T09:05:12.172Z,97612.55
2022-11-22T09:10:35.433Z,97614.83
2022-11-22T09:13:07.028Z,97612.54
2022-11-22T09:15:38.840Z,97610.68
2022-11-22T09:18:10.600Z,97609.38
2022-11-22T09:20:42.091Z,97603.77
2022-11-22T09:23:13.605Z,97600.14
2022-11-22T09:25:45.211Z,97598.27
2022-11-22T09:28:16.748Z,97603.80
2022-11-22T09:30:48.249Z,97602.16
2022-11-22T09:33:19.813Z,97598.80
2022-11-22T09:35:51.317Z,97606.24
2022-11-22T09:38:22.873Z,97605.78
2022-11-22T09:40:54.706Z,97601.18
2022-11-22T09:43:40.859Z,97597.15
2022-11-22T09:46:24.408Z,97600.26
2022-11-22T09:49:14.902Z,97597.14
2022-11-22T09:51:51.901Z,97597.09
2022-11-22T09:54:27.240Z,97590.61
2022-11-22T09:57:04.582Z,97583.77
2022-11-22T09:59:42.523Z,97585.23
2022-11-22T10:02:20.809Z,97590.70
2022-11-22T10:04:57.924Z,97588.49
2022-11-22T10:07:35.305Z,97586.90
2022-11-22T10:10:11.819Z,97585.84
2022-11-22T10:12:49.398Z,97588.02
2022-11-22T10:15:32.862Z,97591.14
2022-11-22T10:18:11.635Z,97584.59
2022-11-22T10:20:48.780Z,97584.86
2022-11-22T10:23:23.201Z,97579.87
2022-11-22T10:25:59.927Z,97578.49
2022-11-22T10:28:36.884Z,97582.53
2022-11-22T10:31:17.464Z,97584.45
2022-11-22T10:34:00.635Z,97570.92
2022-11-22T10:36:39.952Z,97566.00
2022-11-22T10:39:23.621Z,97563.36
2022-11-22T10:42:18.337Z,97557.63
2022-11-22T10:44:56.722Z,97559.43
2022-11-22T10:47:43.977Z,97553.34
2022-11-22T10:50:21.576Z,97550.98
2022-11-22T10:53:02.912Z,97550.25
2022-11-22T10:55:50.216Z,97549.33
2022-11-22T10:58:35.183Z,97548.46
2022-11-22T11:01:15.403Z,97547.34
2022-11-22T11:03:49.733Z,97540.58
2022-11-22T11:06:43.435Z,97535.02
2022-11-22T11:10:03.383Z,97533.11
2022-11-22T11:12:18.334Z,97533.40
2022-11-22T11:14:54.837Z,97534.70
2022-11-22T11:17:30.847Z,97533.59
2022-11-22T11:20:07.474Z,97527.73
2022-11-22T11:25:35.009Z,97515.14
2022-11-22T11:28:10.989Z,97513.52
2022-11-22T11:30:47.175Z,97510.20
2022-11-22T11:33:25.875Z,97514.24
2022-11-22T11:36:03.798Z,97517.77
2022-11-22T11:38:39.235Z,97520.84
2022-11-22T11:41:25.763Z,97524.73
2022-11-22T11:43:59.032Z,97528.12
2022-11-22T11:46:44.970Z,97528.77
2022-11-22T11:49:18.528Z,97528.73
2022-11-22T11:51:55.160Z,97526.04
2022-11-22T11:54:34.976Z,97530.01
2022-11-22T11:57:11.967Z,97531.89
2022-11-22T11:59:49.255Z,97530.75
2022-11-22T12:02:24.855Z,97533.87
2022-11-22T12:04:58.316Z,97529.41
2022-11-22T12:07:39.759Z,97530.09
2022-11-22T12:10:32.870Z,97533.77
2022-11-22T12:13:12.581Z,97530.77
2022-11-22T12:15:52.999Z,97534.06
2022-11-22T12:18:41.950Z,97532.78
2022-11-22T12:21:25.341Z,97533.66
2022-11-22T12:24:26.519Z,97526.11
2022-11-22T12:26:55.123Z,97525.81
2022-11-22T12:29:27.105Z,97528.07
2022-11-22T12:32:04.045Z,97527.68
2022-11-22T12:34:40.752Z,97528.52
2022-11-22T12:37:18.745Z,97524.52
2022-11-22T12:39:52.648Z,97525.56
2022-11-22T12:42:31.158Z,97520.88
2022-11-22T12:45:07.224Z,97518.05
2022-11-22T12:47:42.663Z,97516.38
2022-11-22T12:50:22.933Z,97513.33
2022-11-22T12:53:00.293Z,97516.41
2022-11-22T12:55:40.783Z,97515.42
2022-11-22T12:58:25.253Z,97513.91
2022-11-22T13:01:01.769Z,97515.81
2022-11-22T13:03:48.825Z,97508.23
2022-11-22T13:06:50.156Z,97509.73
2022-11-22T13:09:27.841Z,97507.33
2022-11-22T13:12:04.076Z,97505.34
2022-11-22T13:14:40.423Z,97502.19
2022-11-22T13:17:13.824Z,97501.65
2022-11-22T13:19:50.094Z,97502.77
2022-11-22T13:22:35.147Z,97503.08
2022-11-22T13:25:39.037Z,97504.88
2022-11-22T13:28:14.345Z,97503.75
2022-11-22T13:31:06.743Z,97502.26
2022-11-22T13:33:40.843Z,97498.74
2022-11-22T13:36:39.671Z,97493.89
2022-11-22T13:39:21.331Z,97491.29
2022-11-22T13:42:04.314Z,97483.96
2022-11-22T13:45:08.457Z,97491.44
2022-11-22T13:47:47.482Z,97479.15
2022-11-22T13:50:53.287Z,97493.59
2022-11-22T13:53:28.882Z,97491.38
2022-11-22T13:56:29.948Z,97484.30
2022-11-22T13:59:15.024Z,97482.13
2022-11-22T14:02:02.027Z,97482.52
2022-11-22T14:04:41.698Z,97479.08
2022-11-22T14:07:39.415Z,97482.70
2022-11-22T14:10:33.251Z,97478.98
2022-11-22T14:13:27.249Z,97480.17
2022-11-22T14:16:10.648Z,97478.16
2022-11-22T14:18:53.395Z,97483.40
2022-11-22T14:21:45.280Z,97492.24
2022-11-22T14:24:31.050Z,97496.02
2022-11-22T14:27:12.193Z,97496.77
2022-11-22T14:30:08.118Z,97499.23
2022-11-22T14:32:49.638Z,97502.80
2022-11-22T14:35:35.756Z,97507.23
2022-11-22T14:38:32.595Z,97508.24
2022-11-22T14:41:53.553Z,97511.58
2022-11-22T14:44:33.060Z,97512.39
2022-11-22T14:47:14.708Z,97514.34
2022-11-22T14:49:49.342Z,97520.06
2022-11-22T14:52:26.221Z,97521.48
2022-11-22T14:55:00.306Z,97524.65
2022-11-22T14:57:34.811Z,97528.27
2022-11-22T15:00:22.728Z,97524.80
2022-11-22T15:03:34.194Z,97530.30
2022-11-22T15:09:18.389Z,97532.33
2022-11-22T15:09:52.231Z,97531.18
2022-11-22T15:12:48.033Z,97537.65
2022-11-22T15:57:32.009Z,97537.88
2022-11-22T16:00:11.406Z,97544.52
2022-11-22T16:02:51.331Z,97545.44
2022-11-22T16:06:08.554Z,97547.23
2022-11-22T16:08:25.424Z,97543.91
2022-11-22T16:11:01.537Z,97545.41
2022-11-22T16:13:37.700Z,97546.29
2022-11-22T16:16:26.998Z,97546.13
2022-11-22T16:19:20.567Z,97543.52
2022-11-22T16:22:04.063Z,97545.91
2022-11-22T16:24:36.687Z,97548.01
2022-11-22T16:27:16.313Z,97549.27
2022-11-22T16:29:54.499Z,97549.77
2022-11-22T16:32:26.277Z,97550.37
2022-11-22T16:35:21.711Z,97552.31
2022-11-22T16:37:49.646Z,97552.38
2022-11-22T16:40:21.189Z,97553.08
2022-11-22T16:42:53.236Z,97559.77
2022-11-22T16:45:27.082Z,97561.98
2022-11-22T16:48:24.382Z,97561.23
2022-11-22T16:50:57.911Z,97560.37
2022-11-22T16:53:42.423Z,97560.13
2022-11-22T16:56:20.372Z,97565.06
2022-11-22T16:58:53.754Z,97564.04
2022-11-22T17:01:27.204Z,97566.02
2022-11-22T17:04:00.262Z,97571.90
2022-11-22T17:06:33.219Z,97578.05
2022-11-22T17:09:06.505Z,97576.90
2022-11-22T17:11:38.019Z,97581.08
2022-11-22T17:14:12.019Z,97579.16
2022-11-22T17:16:43.916Z,97584.69
2022-11-22T17:19:45.554Z,97580.91
2022-11-22T17:22:08.120Z,97582.67
2022-11-22T17:24:39.665Z,97582.98
2022-11-22T17:27:13.751Z,97584.24
2022-11-22T17:29:50.678Z,97588.39
2022-11-22T17:32:23.302Z,97578.38
2022-11-22T17:34:55.281Z,97582.91
2022-11-22T17:37:29.413Z,97580.09
2022-11-22T17:40:01.007Z,97579.64
2022-11-22T17:42:38.084Z,97581.95
2022-11-22T17:45:13.273Z,97583.58
2022-11-22T17:47:44.867Z,97583.81
2022-11-22T17:50:17.304Z,97582.98
2022-11-22T17:52:49.017Z,97581.59
2022-11-22T17:55:20.903Z,97587.65
2022-11-22T17:57:55.867Z,97584.08
2022-11-22T18:00:30.239Z,97586.30
2022-11-22T18:03:07.843Z,97587.06
2022-11-22T18:05:40.089Z,97586.61
2022-11-22T18:08:11.609Z,97586.25
2022-11-22T18:10:43.080Z,97595.12
2022-11-22T18:13:21.156Z,97593.61
2022-11-22T18:15:58.609Z,97595.06
2022-11-22T18:18:55.776Z,97595.27
2022-11-22T18:21:26.600Z,97598.52
2022-11-22T18:23:58.992Z,97599.27
2022-11-22T18:26:39.195Z,97604.53
2022-11-22T18:32:05.819Z,97612.70
2022-11-22T18:34:37.829Z,97610.41
2022-11-22T18:37:09.736Z,97604.90
2022-11-22T18:39:41.694Z,97603.41
2022-11-22T18:42:16.954Z,97603.33
2022-11-22T18:44:48.518Z,97602.72
2022-11-22T18:47:20.123Z,97600.16
2022-11-22T18:49:51.633Z,97601.35
2022-11-22T18:52:24.605Z,97602.88
2022-11-22T18:54:56.389Z,97610.93
2022-11-22T18:57:28.965Z,97603.86
2022-11-22T19:00:00.547Z,97605.77
2022-11-22T19:02:33.683Z,97607.84
2022-11-22T19:05:06.061Z,97605.77
2022-11-22T19:07:37.841Z,97607.98
2022-11-22T19:10:11.609Z,97606.02
2022-11-22T19:12:43.571Z,97603.29
2022-11-22T19:15:16.125Z,97600.86
2022-11-22T19:17:47.794Z,97598.73
2022-11-22T19:20:47.257Z,97600.65
2022-11-22T19:23:11.866Z,97607.95
2022-11-22T19:25:44.247Z,97612.36
2022-11-22T19:28:16.126Z,97605.32
2022-11-22T19:30:47.653Z,97606.10
2022-11-22T19:33:19.442Z,97605.07
2022-11-22T19:35:59.703Z,97603.91
2022-11-22T19:38:31.293Z,97603.60
2022-11-22T19:41:02.939Z,97600.98
2022-11-22T19:43:34.546Z,97603.36
2022-11-22T19:46:07.471Z,97599.27
2022-11-22T19:48:43.772Z,97604.27
2022-11-22T19:51:17.762Z,97606.70
2022-11-22T19:53:53.238Z,97607.02
2022-11-22T19:56:30.537Z,97613.14
2022-11-22T19:59:04.364Z,97617.55
2022-11-22T20:01:36.933Z,97630.39
2022-11-22T20:04:09.135Z,97636.09
2022-11-22T20:06:41.210Z,97636.32
2022-11-22T20:09:15.965Z,97640.73
2022-11-22T20:11:47.515Z,97644.98
2022-11-22T20:14:22.145Z,97644.31
2022-11-22T20:16:53.683Z,97645.51
2022-11-22T20:19:32.767Z,97649.01
2022-11-22T20:22:05.689Z,97650.00
2022-11-22T20:24:37.317Z,97649.27
2022-11-22T20:27:10.189Z,97642.09
2022-11-22T20:29:41.918Z,97644.34
2022-11-22T20:32:13.399Z,97645.39
2022-11-22T20:34:45.034Z,97650.15
2022-11-22T20:37:16.716Z,97646.01
2022-11-22T20:39:48.356Z,97648.06
2022-11-22T20:42:34.048Z,97649.30
2022-11-22T20:45:08.634Z,97648.73
2022-11-22T20:47:40.242Z,97653.41
2022-11-22T20:50:12.573Z,97654.91
2022-11-22T20:52:44.167Z,97659.71
2022-11-22T20:55:16.577Z,97657.05
2022-11-22T20:57:48.359Z,97659.89
2022-11-22T21:00:21.140Z,97657.85
2022-11-22T21:02:52.680Z,97656.18
2022-11-22T21:05:24.220Z,97657.41
2022-11-22T21:07:55.792Z,97661.90
2022-11-22T21:10:27.325Z,97659.84
2022-11-22T21:12:58.897Z,97653.80
2022-11-22T21:15:30.797Z,97651.14
2022-11-22T21:18:24.117Z,97655.41
2022-11-22T21:21:01.887Z,97658.98
2022-11-22T21:23:33.630Z,97662.29
2022-11-22T21:26:06.553Z,97668.39
2022-11-22T21:28:39.701Z,97672.84
2022-11-22T21:31:11.430Z,97668.21
2022-11-22T21:33:43.439Z,97663.05
2022-11-22T21:36:15.653Z,97666.84
2022-11-22T21:38:47.723Z,97667.73
2022-11-22T21:41:39.474Z,97670.70
2022-11-22T21:44:12.955Z,97665.79
2022-11-22T21:46:44.912Z,97665.17
2022-11-22T21:49:16.462Z,97666.16
2022-11-22T21:51:49.535Z,97668.20
2022-11-22T21:54:21.116Z,97670.66
2022-11-22T21:56:52.683Z,97668.91
2022-11-22T21:59:24.175Z,97663.98
2022-11-22T22:01:55.741Z,97658.34
2022-11-22T22:04:27.372Z,97663.83
2022-11-22T22:06:58.844Z,97666.22
2022-11-22T22:09:30.498Z,97674.13
2022-11-22T22:12:02.339Z,97679.20
2022-11-22T22:14:33.859Z,97679.61
2022-11-22T22:17:06.060Z,97680.08
2022-11-22T22:19:40.112Z,97678.56
2022-11-22T22:22:11.771Z,97679.10
2022-11-22T22:24:43.412Z,97675.35
2022-11-22T22:27:14.904Z,97675.64
2022-11-22T22:29:46.418Z,97670.38
2022-11-22T22:32:17.989Z,97672.02
2022-11-22T22:34:49.509Z,97672.64
2022-11-22T22:37:21.302Z,97679.77
2022-11-22T22:39:52.870Z,97677.88
2022-11-22T22:42:24.381Z,97678.91
2022-11-22T22:44:56.540Z,97679.64
2022-11-22T22:47:30.106Z,97680.33
2022-11-22T22:50:01.753Z,97685.02
2022-11-22T22:52:33.344Z,97680.56
2022-11-22T22:55:05.353Z,97679.92
2022-11-22T22:57:36.966Z,97683.58
2022-11-22T23:00:10.593Z,97686.13
2022-11-22T23:02:40.609Z,97684.30
2022-11-22T23:05:12.355Z,97682.98
2022-11-22T23:07:44.174Z,97681.48
2022-11-22T23:10:15.871Z,97684.67
2022-11-22T23:12:47.336Z,97689.44
2022-11-22T23:15:28.463Z,97688.42
2022-11-22T23:18:10.492Z,97688.64
2022-11-22T23:20:41.966Z,97685.50
2022-11-22T23:23:13.493Z,97692.66
2022-11-22T23:25:45.205Z,97691.20
2022-11-22T23:28:16.749Z,97687.04
2022-11-22T23:30:48.628Z,97684.31
2022-11-22T23:33:20.202Z,97678.91
2022-11-22T23:35:52.118Z,97685.61
2022-11-22T23:38:23.770Z,97680.87
2022-11-22T23:40:56.658Z,97679.45
2022-11-22T23:43:28.420Z,97675.41
2022-11-22T23:46:00.307Z,97671.17
2022-11-22T23:48:32.064Z,97675.04
2022-11-22T23:51:06.681Z,97669.38
2022-11-22T23:53:38.290Z,97668.15
2022-11-22T23:56:11.935Z,97668.64
2022-11-22T23:58:42.347Z,97669.52
